sensor_id;sensor_type;location;lat;lon;timestamp;P1;durP1;ratioP1;P2;durP2;ratioP2
26588;SDS011;14235;48.532;8.722;2024-01-30T00:01:55;8.97;;;7.57;;
26588;SDS011;14235;48.532;8.722;2024-01-30T00:04:21;9.17;;;7.17;;
26588;SDS011;14235;48.532;8.722;2024-01-30T00:06:47;8.63;;;7.30;;
26588;SDS011;14235;48.532;8.722;2024-01-30T00:09:13;8.13;;;6.90;;
26588;SDS011;14235;48.532;8.722;2024-01-30T00:11:40;8.83;;;7.30;;
26588;SDS011;14235;48.532;8.722;2024-01-30T00:14:06;8.43;;;6.93;;
26588;SDS011;14235;48.532;8.722;2024-01-30T00:16:32;10.30;;;7.60;;
26588;SDS011;14235;48.532;8.722;2024-01-30T00:18:58;9.63;;;6.80;;
26588;SDS011;14235;48.532;8.722;2024-01-30T00:21:24;9.20;;;6.68;;
26588;SDS011;14235;48.532;8.722;2024-01-30T00:23:50;9.47;;;7.37;;
26588;SDS011;14235;48.532;8.722;2024-01-30T00:26:16;8.23;;;6.63;;
26588;SDS011;14235;48.532;8.722;2024-01-30T00:28:43;9.37;;;7.07;;
26588;SDS011;14235;48.532;8.722;2024-01-30T00:31:09;10.93;;;7.00;;
26588;SDS011;14235;48.532;8.722;2024-01-30T00:33:38;7.43;;;6.57;;
26588;SDS011;14235;48.532;8.722;2024-01-30T00:36:05;8.13;;;6.30;;
26588;SDS011;14235;48.532;8.722;2024-01-30T00:38:31;8.40;;;6.67;;
26588;SDS011;14235;48.532;8.722;2024-01-30T00:40:57;8.27;;;6.70;;
26588;SDS011;14235;48.532;8.722;2024-01-30T00:43:23;8.53;;;6.70;;
26588;SDS011;14235;48.532;8.722;2024-01-30T00:45:50;9.50;;;7.07;;
26588;SDS011;14235;48.532;8.722;2024-01-30T00:48:17;8.13;;;6.53;;
26588;SDS011;14235;48.532;8.722;2024-01-30T00:50:43;7.47;;;6.57;;
26588;SDS011;14235;48.532;8.722;2024-01-30T00:53:09;8.50;;;6.70;;
26588;SDS011;14235;48.532;8.722;2024-01-30T00:55:36;10.73;;;7.05;;
26588;SDS011;14235;48.532;8.722;2024-01-30T00:58:02;9.43;;;7.10;;
26588;SDS011;14235;48.532;8.722;2024-01-30T01:00:28;7.87;;;6.83;;
26588;SDS011;14235;48.532;8.722;2024-01-30T01:03:00;7.77;;;6.93;;
26588;SDS011;14235;48.532;8.722;2024-01-30T01:05:26;11.33;;;6.83;;
26588;SDS011;14235;48.532;8.722;2024-01-30T01:07:52;8.87;;;7.03;;
26588;SDS011;14235;48.532;8.722;2024-01-30T01:10:19;8.33;;;7.10;;
26588;SDS011;14235;48.532;8.722;2024-01-30T01:12:45;7.87;;;6.63;;
26588;SDS011;14235;48.532;8.722;2024-01-30T01:15:11;7.60;;;6.57;;
26588;SDS011;14235;48.532;8.722;2024-01-30T01:17:37;6.83;;;6.13;;
26588;SDS011;14235;48.532;8.722;2024-01-30T01:20:04;8.97;;;7.20;;
26588;SDS011;14235;48.532;8.722;2024-01-30T01:22:31;7.60;;;6.40;;
26588;SDS011;14235;48.532;8.722;2024-01-30T01:24:57;7.43;;;6.57;;
26588;SDS011;14235;48.532;8.722;2024-01-30T01:27:23;7.20;;;6.37;;
26588;SDS011;14235;48.532;8.722;2024-01-30T01:29:49;7.90;;;6.43;;
26588;SDS011;14235;48.532;8.722;2024-01-30T01:32:15;11.27;;;7.40;;
26588;SDS011;14235;48.532;8.722;2024-01-30T01:34:41;8.37;;;6.97;;
26588;SDS011;14235;48.532;8.722;2024-01-30T01:37:07;7.43;;;6.63;;
26588;SDS011;14235;48.532;8.722;2024-01-30T01:39:33;8.87;;;6.87;;
26588;SDS011;14235;48.532;8.722;2024-01-30T01:41:59;7.67;;;6.43;;
26588;SDS011;14235;48.532;8.722;2024-01-30T01:44:25;9.10;;;6.60;;
26588;SDS011;14235;48.532;8.722;2024-01-30T01:46:51;7.77;;;6.43;;
26588;SDS011;14235;48.532;8.722;2024-01-30T01:49:18;9.63;;;6.77;;
26588;SDS011;14235;48.532;8.722;2024-01-30T01:51:44;8.00;;;6.77;;
26588;SDS011;14235;48.532;8.722;2024-01-30T01:54:11;9.07;;;7.47;;
26588;SDS011;14235;48.532;8.722;2024-01-30T01:56:37;6.57;;;5.87;;
26588;SDS011;14235;48.532;8.722;2024-01-30T01:59:07;9.07;;;6.70;;
26588;SDS011;14235;48.532;8.722;2024-01-30T02:01:33;8.73;;;6.37;;
26588;SDS011;14235;48.532;8.722;2024-01-30T02:04:00;7.80;;;6.30;;
26588;SDS011;14235;48.532;8.722;2024-01-30T02:06:26;7.27;;;6.20;;
26588;SDS011;14235;48.532;8.722;2024-01-30T02:08:52;8.20;;;6.43;;
26588;SDS011;14235;48.532;8.722;2024-01-30T02:11:18;7.33;;;6.47;;
26588;SDS011;14235;48.532;8.722;2024-01-30T02:13:45;6.80;;;6.10;;
26588;SDS011;14235;48.532;8.722;2024-01-30T02:16:11;9.20;;;6.37;;
26588;SDS011;14235;48.532;8.722;2024-01-30T02:18:37;7.43;;;6.00;;
26588;SDS011;14235;48.532;8.722;2024-01-30T02:21:08;9.07;;;6.17;;
26588;SDS011;14235;48.532;8.722;2024-01-30T02:23:34;7.03;;;5.97;;
26588;SDS011;14235;48.532;8.722;2024-01-30T02:26:00;6.93;;;6.23;;
26588;SDS011;14235;48.532;8.722;2024-01-30T02:28:26;8.00;;;6.30;;
26588;SDS011;14235;48.532;8.722;2024-01-30T02:30:52;6.77;;;6.00;;
26588;SDS011;14235;48.532;8.722;2024-01-30T02:33:18;7.73;;;6.13;;
26588;SDS011;14235;48.532;8.722;2024-01-30T02:35:44;6.87;;;6.07;;
26588;SDS011;14235;48.532;8.722;2024-01-30T02:38:10;6.30;;;5.67;;
26588;SDS011;14235;48.532;8.722;2024-01-30T02:40:36;6.93;;;5.60;;
26588;SDS011;14235;48.532;8.722;2024-01-30T02:43:02;6.70;;;5.70;;
26588;SDS011;14235;48.532;8.722;2024-01-30T02:45:29;6.50;;;5.90;;
26588;SDS011;14235;48.532;8.722;2024-01-30T02:47:55;6.47;;;5.70;;
26588;SDS011;14235;48.532;8.722;2024-01-30T02:50:21;6.47;;;5.77;;
26588;SDS011;14235;48.532;8.722;2024-01-30T02:52:47;5.93;;;5.43;;
26588;SDS011;14235;48.532;8.722;2024-01-30T02:55:16;7.53;;;5.53;;
26588;SDS011;14235;48.532;8.722;2024-01-30T02:57:44;7.47;;;6.00;;
26588;SDS011;14235;48.532;8.722;2024-01-30T03:00:10;7.90;;;5.60;;
26588;SDS011;14235;48.532;8.722;2024-01-30T03:02:37;7.43;;;5.80;;
26588;SDS011;14235;48.532;8.722;2024-01-30T03:05:03;7.73;;;5.93;;
26588;SDS011;14235;48.532;8.722;2024-01-30T03:07:29;8.27;;;5.73;;
26588;SDS011;14235;48.532;8.722;2024-01-30T03:09:55;7.63;;;6.20;;
26588;SDS011;14235;48.532;8.722;2024-01-30T03:12:21;6.93;;;5.83;;
26588;SDS011;14235;48.532;8.722;2024-01-30T03:14:48;8.00;;;6.40;;
26588;SDS011;14235;48.532;8.722;2024-01-30T03:17:14;6.27;;;5.67;;
26588;SDS011;14235;48.532;8.722;2024-01-30T03:19:40;6.00;;;5.40;;
26588;SDS011;14235;48.532;8.722;2024-01-30T03:22:06;7.73;;;5.50;;
26588;SDS011;14235;48.532;8.722;2024-01-30T03:24:33;6.80;;;5.90;;
26588;SDS011;14235;48.532;8.722;2024-01-30T03:26:59;8.10;;;5.93;;
26588;SDS011;14235;48.532;8.722;2024-01-30T03:29:25;5.73;;;5.23;;
26588;SDS011;14235;48.532;8.722;2024-01-30T03:31:51;6.50;;;5.70;;
26588;SDS011;14235;48.532;8.722;2024-01-30T03:34:17;6.23;;;5.40;;
26588;SDS011;14235;48.532;8.722;2024-01-30T03:36:43;7.47;;;5.67;;
26588;SDS011;14235;48.532;8.722;2024-01-30T03:39:09;7.07;;;5.03;;
26588;SDS011;14235;48.532;8.722;2024-01-30T03:41:35;5.83;;;5.23;;
26588;SDS011;14235;48.532;8.722;2024-01-30T03:44:01;6.83;;;5.40;;
26588;SDS011;14235;48.532;8.722;2024-01-30T03:46:27;6.40;;;5.50;;
26588;SDS011;14235;48.532;8.722;2024-01-30T03:48:53;5.83;;;5.27;;
26588;SDS011;14235;48.532;8.722;2024-01-30T03:51:19;7.77;;;5.70;;
26588;SDS011;14235;48.532;8.722;2024-01-30T03:53:45;7.17;;;5.70;;
26588;SDS011;14235;48.532;8.722;2024-01-30T03:56:11;8.13;;;5.50;;
26588;SDS011;14235;48.532;8.722;2024-01-30T03:58:40;6.07;;;5.47;;
26588;SDS011;14235;48.532;8.722;2024-01-30T04:01:07;6.00;;;5.40;;
26588;SDS011;14235;48.532;8.722;2024-01-30T04:03:33;6.63;;;5.40;;
26588;SDS011;14235;48.532;8.722;2024-01-30T04:05:59;6.13;;;5.23;;
26588;SDS011;14235;48.532;8.722;2024-01-30T04:08:25;6.30;;;5.30;;
26588;SDS011;14235;48.532;8.722;2024-01-30T04:10:51;7.33;;;5.53;;
26588;SDS011;14235;48.532;8.722;2024-01-30T04:13:17;6.10;;;5.33;;
26588;SDS011;14235;48.532;8.722;2024-01-30T04:15:42;7.87;;;5.43;;
26588;SDS011;14235;48.532;8.722;2024-01-30T04:18:08;6.30;;;5.03;;
26588;SDS011;14235;48.532;8.722;2024-01-30T04:20:34;7.70;;;5.77;;
26588;SDS011;14235;48.532;8.722;2024-01-30T04:23:00;7.23;;;5.70;;
26588;SDS011;14235;48.532;8.722;2024-01-30T04:25:26;5.73;;;5.23;;
26588;SDS011;14235;48.532;8.722;2024-01-30T04:27:52;6.53;;;5.20;;
26588;SDS011;14235;48.532;8.722;2024-01-30T04:30:18;5.83;;;5.03;;
26588;SDS011;14235;48.532;8.722;2024-01-30T04:32:44;7.03;;;5.90;;
26588;SDS011;14235;48.532;8.722;2024-01-30T04:35:10;6.97;;;5.80;;
26588;SDS011;14235;48.532;8.722;2024-01-30T04:37:36;6.67;;;5.37;;
26588;SDS011;14235;48.532;8.722;2024-01-30T04:40:02;6.20;;;5.28;;
26588;SDS011;14235;48.532;8.722;2024-01-30T04:42:28;5.93;;;5.27;;
26588;SDS011;14235;48.532;8.722;2024-01-30T04:44:54;7.13;;;5.63;;
26588;SDS011;14235;48.532;8.722;2024-01-30T04:47:20;6.57;;;5.30;;
26588;SDS011;14235;48.532;8.722;2024-01-30T04:49:46;8.17;;;5.57;;
26588;SDS011;14235;48.532;8.722;2024-01-30T04:52:12;8.10;;;5.50;;
26588;SDS011;14235;48.532;8.722;2024-01-30T04:54:39;8.63;;;5.67;;
26588;SDS011;14235;48.532;8.722;2024-01-30T04:57:05;5.73;;;4.80;;
26588;SDS011;14235;48.532;8.722;2024-01-30T04:59:34;6.50;;;5.10;;
26588;SDS011;14235;48.532;8.722;2024-01-30T05:02:01;8.87;;;5.27;;
26588;SDS011;14235;48.532;8.722;2024-01-30T05:04:27;6.97;;;5.27;;
26588;SDS011;14235;48.532;8.722;2024-01-30T05:06:53;8.77;;;5.57;;
26588;SDS011;14235;48.532;8.722;2024-01-30T05:09:19;8.83;;;6.53;;
26588;SDS011;14235;48.532;8.722;2024-01-30T05:11:45;7.60;;;6.33;;
26588;SDS011;14235;48.532;8.722;2024-01-30T05:14:11;7.60;;;5.77;;
26588;SDS011;14235;48.532;8.722;2024-01-30T05:16:39;7.33;;;5.47;;
26588;SDS011;14235;48.532;8.722;2024-01-30T05:19:06;7.33;;;5.67;;
26588;SDS011;14235;48.532;8.722;2024-01-30T05:21:33;10.27;;;6.93;;
26588;SDS011;14235;48.532;8.722;2024-01-30T05:23:59;11.23;;;7.97;;
26588;SDS011;14235;48.532;8.722;2024-01-30T05:26:25;10.37;;;8.03;;
26588;SDS011;14235;48.532;8.722;2024-01-30T05:28:51;9.77;;;7.80;;
26588;SDS011;14235;48.532;8.722;2024-01-30T05:31:17;9.47;;;7.27;;
26588;SDS011;14235;48.532;8.722;2024-01-30T05:33:43;13.43;;;9.10;;
26588;SDS011;14235;48.532;8.722;2024-01-30T05:36:11;16.40;;;10.73;;
26588;SDS011;14235;48.532;8.722;2024-01-30T05:38:38;9.93;;;7.33;;
26588;SDS011;14235;48.532;8.722;2024-01-30T05:41:04;7.43;;;5.90;;
26588;SDS011;14235;48.532;8.722;2024-01-30T05:43:30;8.83;;;6.17;;
26588;SDS011;14235;48.532;8.722;2024-01-30T05:45:56;5.90;;;5.30;;
26588;SDS011;14235;48.532;8.722;2024-01-30T05:48:22;7.13;;;5.37;;
26588;SDS011;14235;48.532;8.722;2024-01-30T05:50:48;8.00;;;5.57;;
26588;SDS011;14235;48.532;8.722;2024-01-30T05:53:14;8.67;;;7.03;;
26588;SDS011;14235;48.532;8.722;2024-01-30T05:55:40;10.67;;;8.47;;
26588;SDS011;14235;48.532;8.722;2024-01-30T05:58:06;10.90;;;7.90;;
26588;SDS011;14235;48.532;8.722;2024-01-30T06:00:32;9.43;;;6.77;;
26588;SDS011;14235;48.532;8.722;2024-01-30T06:02:58;10.87;;;7.07;;
26588;SDS011;14235;48.532;8.722;2024-01-30T06:05:24;9.20;;;6.67;;
26588;SDS011;14235;48.532;8.722;2024-01-30T06:07:50;9.33;;;6.60;;
26588;SDS011;14235;48.532;8.722;2024-01-30T06:10:16;6.87;;;5.30;;
26588;SDS011;14235;48.532;8.722;2024-01-30T06:12:42;5.70;;;5.07;;
26588;SDS011;14235;48.532;8.722;2024-01-30T06:15:08;6.80;;;5.60;;
26588;SDS011;14235;48.532;8.722;2024-01-30T06:17:35;6.70;;;5.40;;
26588;SDS011;14235;48.532;8.722;2024-01-30T06:20:01;6.10;;;5.37;;
26588;SDS011;14235;48.532;8.722;2024-01-30T06:22:27;9.03;;;6.67;;
26588;SDS011;14235;48.532;8.722;2024-01-30T06:24:53;7.40;;;5.80;;
26588;SDS011;14235;48.532;8.722;2024-01-30T06:27:18;6.10;;;5.23;;
26588;SDS011;14235;48.532;8.722;2024-01-30T06:29:44;7.03;;;6.17;;
26588;SDS011;14235;48.532;8.722;2024-01-30T06:32:10;10.90;;;6.57;;
26588;SDS011;14235;48.532;8.722;2024-01-30T06:34:36;6.27;;;5.50;;
26588;SDS011;14235;48.532;8.722;2024-01-30T06:37:04;6.50;;;5.73;;
26588;SDS011;14235;48.532;8.722;2024-01-30T06:39:30;8.30;;;6.03;;
26588;SDS011;14235;48.532;8.722;2024-01-30T06:41:56;14.33;;;9.57;;
26588;SDS011;14235;48.532;8.722;2024-01-30T06:44:22;56.77;;;29.57;;
26588;SDS011;14235;48.532;8.722;2024-01-30T06:46:48;24.80;;;14.17;;
26588;SDS011;14235;48.532;8.722;2024-01-30T06:49:14;10.20;;;7.30;;
26588;SDS011;14235;48.532;8.722;2024-01-30T06:51:40;9.70;;;6.80;;
26588;SDS011;14235;48.532;8.722;2024-01-30T06:54:06;10.53;;;7.03;;
26588;SDS011;14235;48.532;8.722;2024-01-30T06:56:32;7.93;;;6.30;;
26588;SDS011;14235;48.532;8.722;2024-01-30T06:58:58;6.70;;;6.00;;
26588;SDS011;14235;48.532;8.722;2024-01-30T07:01:28;6.17;;;5.40;;
26588;SDS011;14235;48.532;8.722;2024-01-30T07:03:54;7.07;;;5.43;;
26588;SDS011;14235;48.532;8.722;2024-01-30T07:06:20;6.90;;;5.43;;
26588;SDS011;14235;48.532;8.722;2024-01-30T07:08:47;7.43;;;5.80;;
26588;SDS011;14235;48.532;8.722;2024-01-30T07:11:19;8.27;;;6.17;;
26588;SDS011;14235;48.532;8.722;2024-01-30T07:13:49;6.80;;;5.30;;
26588;SDS011;14235;48.532;8.722;2024-01-30T07:16:16;7.47;;;5.60;;
26588;SDS011;14235;48.532;8.722;2024-01-30T07:18:42;6.20;;;4.73;;
26588;SDS011;14235;48.532;8.722;2024-01-30T07:21:08;5.20;;;4.67;;
26588;SDS011;14235;48.532;8.722;2024-01-30T07:23:35;6.87;;;5.30;;
26588;SDS011;14235;48.532;8.722;2024-01-30T07:26:04;5.63;;;5.07;;
26588;SDS011;14235;48.532;8.722;2024-01-30T07:28:30;7.27;;;5.83;;
26588;SDS011;14235;48.532;8.722;2024-01-30T07:30:56;8.67;;;5.40;;
26588;SDS011;14235;48.532;8.722;2024-01-30T07:33:22;6.57;;;5.63;;
26588;SDS011;14235;48.532;8.722;2024-01-30T07:35:48;6.63;;;5.47;;
26588;SDS011;14235;48.532;8.722;2024-01-30T07:38:14;6.27;;;5.60;;
26588;SDS011;14235;48.532;8.722;2024-01-30T07:40:40;7.20;;;5.70;;
26588;SDS011;14235;48.532;8.722;2024-01-30T07:43:06;6.90;;;5.37;;
26588;SDS011;14235;48.532;8.722;2024-01-30T07:45:33;7.70;;;5.93;;
26588;SDS011;14235;48.532;8.722;2024-01-30T07:47:59;7.73;;;6.00;;
26588;SDS011;14235;48.532;8.722;2024-01-30T07:50:25;6.40;;;5.80;;
26588;SDS011;14235;48.532;8.722;2024-01-30T07:52:51;9.10;;;6.80;;
26588;SDS011;14235;48.532;8.722;2024-01-30T07:55:20;8.83;;;7.00;;
26588;SDS011;14235;48.532;8.722;2024-01-30T07:57:49;6.97;;;5.63;;
26588;SDS011;14235;48.532;8.722;2024-01-30T08:00:16;10.60;;;8.10;;
26588;SDS011;14235;48.532;8.722;2024-01-30T08:02:42;12.67;;;8.03;;
26588;SDS011;14235;48.532;8.722;2024-01-30T08:05:08;11.40;;;7.33;;
26588;SDS011;14235;48.532;8.722;2024-01-30T08:07:36;8.50;;;6.57;;
26588;SDS011;14235;48.532;8.722;2024-01-30T08:10:02;8.37;;;7.10;;
26588;SDS011;14235;48.532;8.722;2024-01-30T08:12:28;7.80;;;6.70;;
26588;SDS011;14235;48.532;8.722;2024-01-30T08:14:54;7.77;;;6.20;;
26588;SDS011;14235;48.532;8.722;2024-01-30T08:17:20;8.13;;;5.77;;
26588;SDS011;14235;48.532;8.722;2024-01-30T08:19:46;7.80;;;5.53;;
26588;SDS011;14235;48.532;8.722;2024-01-30T08:22:12;8.23;;;6.03;;
26588;SDS011;14235;48.532;8.722;2024-01-30T08:24:38;6.60;;;5.90;;
26588;SDS011;14235;48.532;8.722;2024-01-30T08:27:05;6.87;;;5.63;;
26588;SDS011;14235;48.532;8.722;2024-01-30T08:29:34;8.97;;;6.20;;
26588;SDS011;14235;48.532;8.722;2024-01-30T08:32:00;8.63;;;6.55;;
26588;SDS011;14235;48.532;8.722;2024-01-30T08:34:26;7.93;;;6.17;;
26588;SDS011;14235;48.532;8.722;2024-01-30T08:36:52;7.83;;;6.20;;
26588;SDS011;14235;48.532;8.722;2024-01-30T08:39:18;8.80;;;6.03;;
26588;SDS011;14235;48.532;8.722;2024-01-30T08:41:44;6.73;;;5.63;;
26588;SDS011;14235;48.532;8.722;2024-01-30T08:44:10;6.27;;;5.60;;
26588;SDS011;14235;48.532;8.722;2024-01-30T08:46:36;7.00;;;5.20;;
26588;SDS011;14235;48.532;8.722;2024-01-30T08:49:02;5.70;;;5.10;;
26588;SDS011;14235;48.532;8.722;2024-01-30T08:51:31;7.13;;;6.17;;
26588;SDS011;14235;48.532;8.722;2024-01-30T08:53:57;5.33;;;4.83;;
26588;SDS011;14235;48.532;8.722;2024-01-30T08:56:23;6.57;;;5.47;;
26588;SDS011;14235;48.532;8.722;2024-01-30T08:58:49;6.60;;;5.77;;
26588;SDS011;14235;48.532;8.722;2024-01-30T09:01:15;6.17;;;5.33;;
26588;SDS011;14235;48.532;8.722;2024-01-30T09:03:41;7.07;;;4.93;;
26588;SDS011;14235;48.532;8.722;2024-01-30T09:06:09;6.30;;;5.07;;
26588;SDS011;14235;48.532;8.722;2024-01-30T09:08:43;7.10;;;5.23;;
26588;SDS011;14235;48.532;8.722;2024-01-30T09:11:10;7.10;;;5.40;;
26588;SDS011;14235;48.532;8.722;2024-01-30T09:13:36;6.57;;;5.23;;
26588;SDS011;14235;48.532;8.722;2024-01-30T09:16:02;5.53;;;4.93;;
26588;SDS011;14235;48.532;8.722;2024-01-30T09:18:28;6.00;;;5.00;;
26588;SDS011;14235;48.532;8.722;2024-01-30T09:20:54;4.80;;;4.30;;
26588;SDS011;14235;48.532;8.722;2024-01-30T09:23:20;7.63;;;5.27;;
26588;SDS011;14235;48.532;8.722;2024-01-30T09:25:46;7.00;;;4.80;;
26588;SDS011;14235;48.532;8.722;2024-01-30T09:28:13;6.27;;;5.43;;
26588;SDS011;14235;48.532;8.722;2024-01-30T09:30:39;5.67;;;4.67;;
26588;SDS011;14235;48.532;8.722;2024-01-30T09:33:05;6.07;;;4.67;;
26588;SDS011;14235;48.532;8.722;2024-01-30T09:35:32;4.87;;;4.47;;
26588;SDS011;14235;48.532;8.722;2024-01-30T09:37:58;6.87;;;5.33;;
26588;SDS011;14235;48.532;8.722;2024-01-30T09:40:25;7.00;;;5.32;;
26588;SDS011;14235;48.532;8.722;2024-01-30T09:42:51;5.45;;;4.80;;
26588;SDS011;14235;48.532;8.722;2024-01-30T09:45:17;6.73;;;4.50;;
26588;SDS011;14235;48.532;8.722;2024-01-30T09:47:44;6.13;;;4.40;;
26588;SDS011;14235;48.532;8.722;2024-01-30T09:50:13;5.70;;;4.70;;
26588;SDS011;14235;48.532;8.722;2024-01-30T09:52:39;5.50;;;4.40;;
26588;SDS011;14235;48.532;8.722;2024-01-30T09:55:06;5.27;;;4.77;;
26588;SDS011;14235;48.532;8.722;2024-01-30T09:57:32;5.37;;;4.63;;
26588;SDS011;14235;48.532;8.722;2024-01-30T09:59:58;10.60;;;4.60;;
26588;SDS011;14235;48.532;8.722;2024-01-30T10:02:24;5.97;;;4.70;;
26588;SDS011;14235;48.532;8.722;2024-01-30T10:04:50;4.73;;;4.23;;
26588;SDS011;14235;48.532;8.722;2024-01-30T10:07:17;8.47;;;5.47;;
26588;SDS011;14235;48.532;8.722;2024-01-30T10:09:43;5.40;;;4.75;;
26588;SDS011;14235;48.532;8.722;2024-01-30T10:12:09;4.70;;;4.20;;
26588;SDS011;14235;48.532;8.722;2024-01-30T10:14:38;7.70;;;6.93;;
26588;SDS011;14235;48.532;8.722;2024-01-30T10:17:04;7.82;;;6.63;;
26588;SDS011;14235;48.532;8.722;2024-01-30T10:19:31;9.48;;;6.53;;
26588;SDS011;14235;48.532;8.722;2024-01-30T10:21:57;6.55;;;5.82;;
26588;SDS011;14235;48.532;8.722;2024-01-30T10:24:26;6.72;;;6.05;;
26588;SDS011;14235;48.532;8.722;2024-01-30T10:26:54;7.90;;;6.18;;
26588;SDS011;14235;48.532;8.722;2024-01-30T10:29:20;6.30;;;5.63;;
26588;SDS011;14235;48.532;8.722;2024-01-30T10:31:57;6.45;;;5.32;;
26588;SDS011;14235;48.532;8.722;2024-01-30T10:34:23;7.65;;;4.97;;
26588;SDS011;14235;48.532;8.722;2024-01-30T10:36:50;5.18;;;4.68;;
26588;SDS011;14235;48.532;8.722;2024-01-30T10:39:16;4.93;;;4.53;;
26588;SDS011;14235;48.532;8.722;2024-01-30T10:41:43;5.63;;;5.00;;
26588;SDS011;14235;48.532;8.722;2024-01-30T10:44:10;5.32;;;4.82;;
26588;SDS011;14235;48.532;8.722;2024-01-30T10:46:38;7.20;;;5.20;;
26588;SDS011;14235;48.532;8.722;2024-01-30T10:49:05;4.60;;;4.20;;
26588;SDS011;14235;48.532;8.722;2024-01-30T10:51:31;7.00;;;4.75;;
26588;SDS011;14235;48.532;8.722;2024-01-30T10:53:58;5.78;;;5.10;;
26588;SDS011;14235;48.532;8.722;2024-01-30T10:56:24;6.45;;;5.25;;
26588;SDS011;14235;48.532;8.722;2024-01-30T10:58:51;8.55;;;5.72;;
26588;SDS011;14235;48.532;8.722;2024-01-30T11:01:18;8.95;;;6.65;;
26588;SDS011;14235;48.532;8.722;2024-01-30T11:03:44;8.18;;;6.70;;
26588;SDS011;14235;48.532;8.722;2024-01-30T11:06:13;10.43;;;6.78;;
26588;SDS011;14235;48.532;8.722;2024-01-30T11:08:43;6.47;;;5.85;;
26588;SDS011;14235;48.532;8.722;2024-01-30T11:11:09;11.55;;;7.70;;
26588;SDS011;14235;48.532;8.722;2024-01-30T11:13:37;10.40;;;7.43;;
26588;SDS011;14235;48.532;8.722;2024-01-30T11:16:04;9.35;;;6.85;;
26588;SDS011;14235;48.532;8.722;2024-01-30T11:18:37;7.88;;;6.53;;
26588;SDS011;14235;48.532;8.722;2024-01-30T11:21:27;6.95;;;6.22;;
26588;SDS011;14235;48.532;8.722;2024-01-30T11:24:03;8.02;;;6.45;;
26588;SDS011;14235;48.532;8.722;2024-01-30T11:26:44;12.90;;;7.30;;
26588;SDS011;14235;48.532;8.722;2024-01-30T11:29:15;8.52;;;7.10;;
26588;SDS011;14235;48.532;8.722;2024-01-30T11:34:39;7.53;;;6.47;;
26588;SDS011;14235;48.532;8.722;2024-01-30T11:37:09;9.73;;;7.35;;
26588;SDS011;14235;48.532;8.722;2024-01-30T11:39:35;9.75;;;7.60;;
26588;SDS011;14235;48.532;8.722;2024-01-30T11:42:02;12.70;;;7.97;;
26588;SDS011;14235;48.532;8.722;2024-01-30T11:44:30;9.35;;;7.70;;
26588;SDS011;14235;48.532;8.722;2024-01-30T11:46:56;9.35;;;6.68;;
26588;SDS011;14235;48.532;8.722;2024-01-30T11:49:24;8.75;;;6.90;;
26588;SDS011;14235;48.532;8.722;2024-01-30T11:51:57;12.80;;;8.02;;
26588;SDS011;14235;48.532;8.722;2024-01-30T11:54:25;15.73;;;8.07;;
26588;SDS011;14235;48.532;8.722;2024-01-30T11:56:51;11.23;;;6.60;;
26588;SDS011;14235;48.532;8.722;2024-01-30T11:59:17;8.35;;;6.53;;
26588;SDS011;14235;48.532;8.722;2024-01-30T12:01:43;9.05;;;6.68;;
26588;SDS011;14235;48.532;8.722;2024-01-30T12:04:09;9.52;;;6.68;;
26588;SDS011;14235;48.532;8.722;2024-01-30T12:06:35;8.88;;;6.90;;
26588;SDS011;14235;48.532;8.722;2024-01-30T12:09:02;11.93;;;6.53;;
26588;SDS011;14235;48.532;8.722;2024-01-30T12:11:46;9.95;;;6.82;;
26588;SDS011;14235;48.532;8.722;2024-01-30T12:14:12;7.15;;;6.22;;
26588;SDS011;14235;48.532;8.722;2024-01-30T12:16:38;9.75;;;7.38;;
26588;SDS011;14235;48.532;8.722;2024-01-30T12:19:06;11.30;;;7.82;;
26588;SDS011;14235;48.532;8.722;2024-01-30T12:21:33;11.40;;;7.88;;
26588;SDS011;14235;48.532;8.722;2024-01-30T12:23:59;10.25;;;7.60;;
26588;SDS011;14235;48.532;8.722;2024-01-30T12:26:26;12.10;;;8.48;;
26588;SDS011;14235;48.532;8.722;2024-01-30T12:28:55;10.32;;;7.82;;
26588;SDS011;14235;48.532;8.722;2024-01-30T12:31:26;8.85;;;6.90;;
26588;SDS011;14235;48.532;8.722;2024-01-30T12:33:52;8.98;;;6.95;;
26588;SDS011;14235;48.532;8.722;2024-01-30T12:36:19;11.05;;;7.30;;
26588;SDS011;14235;48.532;8.722;2024-01-30T12:38:45;10.63;;;7.15;;
26588;SDS011;14235;48.532;8.722;2024-01-30T12:41:11;8.43;;;6.60;;
26588;SDS011;14235;48.532;8.722;2024-01-30T12:43:37;10.63;;;7.10;;
26588;SDS011;14235;48.532;8.722;2024-01-30T12:46:03;11.20;;;6.90;;
26588;SDS011;14235;48.532;8.722;2024-01-30T12:48:29;7.45;;;6.38;;
26588;SDS011;14235;48.532;8.722;2024-01-30T12:50:55;8.80;;;6.80;;
26588;SDS011;14235;48.532;8.722;2024-01-30T12:53:21;9.20;;;6.57;;
26588;SDS011;14235;48.532;8.722;2024-01-30T12:55:47;11.88;;;7.47;;
26588;SDS011;14235;48.532;8.722;2024-01-30T12:58:14;10.38;;;7.90;;
26588;SDS011;14235;48.532;8.722;2024-01-30T13:00:40;15.10;;;7.95;;
26588;SDS011;14235;48.532;8.722;2024-01-30T13:03:08;6.88;;;5.43;;
26588;SDS011;14235;48.532;8.722;2024-01-30T13:05:34;9.40;;;5.45;;
26588;SDS011;14235;48.532;8.722;2024-01-30T13:08:00;5.88;;;4.18;;
26588;SDS011;14235;48.532;8.722;2024-01-30T13:10:26;3.55;;;3.25;;
26588;SDS011;14235;48.532;8.722;2024-01-30T13:12:52;4.75;;;3.22;;
26588;SDS011;14235;48.532;8.722;2024-01-30T13:15:18;3.25;;;2.90;;
26588;SDS011;14235;48.532;8.722;2024-01-30T13:17:44;3.80;;;2.60;;
26588;SDS011;14235;48.532;8.722;2024-01-30T13:20:13;3.25;;;2.50;;
26588;SDS011;14235;48.532;8.722;2024-01-30T13:22:44;2.55;;;2.33;;
26588;SDS011;14235;48.532;8.722;2024-01-30T13:25:10;2.58;;;2.20;;
26588;SDS011;14235;48.532;8.722;2024-01-30T13:27:36;2.70;;;2.45;;
26588;SDS011;14235;48.532;8.722;2024-01-30T13:30:02;2.60;;;2.35;;
26588;SDS011;14235;48.532;8.722;2024-01-30T13:32:29;2.00;;;1.90;;
26588;SDS011;14235;48.532;8.722;2024-01-30T13:34:55;2.50;;;2.17;;
26588;SDS011;14235;48.532;8.722;2024-01-30T13:37:21;2.00;;;1.90;;
26588;SDS011;14235;48.532;8.722;2024-01-30T13:39:48;2.63;;;2.00;;
26588;SDS011;14235;48.532;8.722;2024-01-30T13:42:14;2.67;;;2.20;;
26588;SDS011;14235;48.532;8.722;2024-01-30T13:44:40;2.38;;;2.17;;
26588;SDS011;14235;48.532;8.722;2024-01-30T13:47:08;2.83;;;2.20;;
26588;SDS011;14235;48.532;8.722;2024-01-30T13:49:34;5.50;;;2.15;;
26588;SDS011;14235;48.532;8.722;2024-01-30T13:52:00;2.47;;;2.20;;
26588;SDS011;14235;48.532;8.722;2024-01-30T13:54:26;2.42;;;2.00;;
26588;SDS011;14235;48.532;8.722;2024-01-30T13:56:52;2.85;;;2.20;;
26588;SDS011;14235;48.532;8.722;2024-01-30T13:59:18;2.20;;;2.00;;
26588;SDS011;14235;48.532;8.722;2024-01-30T14:01:48;2.42;;;2.10;;
26588;SDS011;14235;48.532;8.722;2024-01-30T14:04:15;2.92;;;2.00;;
26588;SDS011;14235;48.532;8.722;2024-01-30T14:06:41;1.95;;;1.85;;
26588;SDS011;14235;48.532;8.722;2024-01-30T14:09:07;3.00;;;2.47;;
26588;SDS011;14235;48.532;8.722;2024-01-30T14:11:33;2.38;;;2.17;;
26588;SDS011;14235;48.532;8.722;2024-01-30T14:14:00;4.53;;;2.53;;
26588;SDS011;14235;48.532;8.722;2024-01-30T14:16:26;2.55;;;2.35;;
26588;SDS011;14235;48.532;8.722;2024-01-30T14:18:53;2.33;;;2.13;;
26588;SDS011;14235;48.532;8.722;2024-01-30T14:21:19;2.70;;;2.45;;
26588;SDS011;14235;48.532;8.722;2024-01-30T14:23:45;2.50;;;2.30;;
26588;SDS011;14235;48.532;8.722;2024-01-30T14:26:12;3.72;;;2.33;;
26588;SDS011;14235;48.532;8.722;2024-01-30T14:28:38;3.17;;;2.40;;
26588;SDS011;14235;48.532;8.722;2024-01-30T14:31:04;2.60;;;2.40;;
26588;SDS011;14235;48.532;8.722;2024-01-30T14:33:30;2.60;;;2.10;;
26588;SDS011;14235;48.532;8.722;2024-01-30T14:35:57;2.83;;;2.53;;
26588;SDS011;14235;48.532;8.722;2024-01-30T14:38:23;3.97;;;2.60;;
26588;SDS011;14235;48.532;8.722;2024-01-30T14:40:50;4.05;;;2.55;;
26588;SDS011;14235;48.532;8.722;2024-01-30T14:43:16;2.50;;;2.30;;
26588;SDS011;14235;48.532;8.722;2024-01-30T14:45:42;3.45;;;2.30;;